Time;durP1;ratioP1;P1;durP2;ratioP2;P2;SDS_P1;SDS_P2;PMS_P1;PMS_P2;Temp;Humidity;BMP_temperature;BMP_pressure;BME280_temperature;BME280_humidity;BME280_pressure;Samples;Min_cycle;Max_cycle;Signal;HPM_P1;HPM_P2
2022/11/29 00:02:20;;;;;;;267.50;46.13;;;;;;;7.42;100.00;101388.22;10584907;27;20168;-70
2022/11/29 00:07:20;;;;;;;287.75;45.45;;;;;;;7.39;100.00;101383.19;10588925;27;20039;-70
2022/11/29 00:12:21;;;;;;;305.45;52.15;;;;;;;7.34;100.00;101374.78;10568822;27;20042;-69
2022/11/29 00:17:21;;;;;;;349.48;50.72;;;;;;;7.43;100.00;101391.81;10570081;27;20043;-70
2022/11/29 00:22:24;;;;;;;378.73;52.58;;;;;;;7.34;100.00;101374.78;10569149;27;20031;-70
2022/11/29 00:27:24;;;;;;;385.25;50.33;;;;;;;7.42;100.00;101388.22;10585391;27;20112;-70
2022/11/29 00:32:24;;;;;;;409.20;55.58;;;;;;;7.30;100.00;101373.56;10587691;27;20096;-70
2022/11/29 00:37:25;;;;;;;390.33;56.13;;;;;;;7.22;100.00;101371.06;10549442;28;20036;-70
2022/11/29 00:42:25;;;;;;;384.02;52.88;;;;;;;7.31;100.00;101380.69;10567743;27;20040;-70
2022/11/29 00:47:26;;;;;;;394.67;52.63;;;;;;;7.35;100.00;101387.41;10584472;27;20035;-70
2022/11/29 00:52:26;;;;;;;405.98;52.20;;;;;;;7.19;100.00;101376.97;10586831;27;20047;-70
2022/11/29 00:57:27;;;;;;;337.45;49.10;;;;;;;7.33;100.00;101397.75;10584668;27;20046;-70
2022/11/29 01:02:27;;;;;;;337.90;48.55;;;;;;;7.34;100.00;101395.84;10584791;27;20035;-70
2022/11/29 01:07:28;;;;;;;400.83;52.03;;;;;;;7.34;100.00;101396.72;10583723;27;20077;-70
2022/11/29 01:12:28;;;;;;;372.13;50.75;;;;;;;7.24;100.00;101385.38;10585538;27;20031;-70
2022/11/29 01:17:29;;;;;;;383.55;52.15;;;;;;;7.26;100.00;101399.72;10586220;27;20476;-70
2022/11/29 01:22:29;;;;;;;463.10;60.70;;;;;;;7.26;100.00;101416.97;10583392;27;20032;-70
2022/11/29 01:27:30;;;;;;;416.10;49.33;;;;;;;7.22;100.00;101399.28;10549037;27;20040;-71
2022/11/29 01:32:30;;;;;;;426.90;51.75;;;;;;;7.21;100.00;101407.72;10601683;27;20058;-71
2022/11/29 01:37:31;;;;;;;377.45;48.08;;;;;;;7.23;100.00;101416.56;10628104;27;20046;-70
2022/11/29 01:42:31;;;;;;;499.27;53.53;;;;;;;7.20;100.00;101406.06;10563282;27;20054;-70
2022/11/29 01:47:32;;;;;;;463.10;49.70;;;;;;;7.24;100.00;101418.25;10565704;27;20032;-70
2022/11/29 01:52:32;;;;;;;468.02;50.60;;;;;;;7.28;100.00;101435.94;10582249;27;20051;-70
2022/11/29 01:57:33;;;;;;;398.15;50.35;;;;;;;7.19;100.00;101421.66;10581403;27;20233;-71
2022/11/29 02:02:36;;;;;;;379.70;49.88;;;;;;;7.17;100.00;101420.16;10563499;28;20103;-71
2022/11/29 02:07:36;;;;;;;424.27;50.90;;;;;;;7.08;100.00;101423.16;10547626;27;20055;-71
2022/11/29 02:12:46;;;;;;;491.45;53.10;;;;;;;7.24;100.00;101440.16;10565338;28;20454;-71
2022/11/29 02:18:04;;;;;;;457.10;51.20;;;;;;;7.23;100.00;101443.94;10581412;27;20043;-71
2022/11/29 02:23:29;;;;;;;362.27;41.67;;;;;;;7.25;100.00;101447.31;10581605;27;20126;-71
2022/11/29 02:28:49;;;;;;;405.33;45.00;;;;;;;7.24;100.00;101442.91;10581096;28;20101;-71
2022/11/29 02:34:17;;;;;;;392.58;40.22;;;;;;;7.24;100.00;101446.47;10583794;27;20028;-69
2022/11/29 02:39:50;;;;;;;409.30;46.78;;;;;;;7.20;100.00;101450.72;10579860;27;20054;-70
2022/11/29 02:45:10;;;;;;;302.73;39.83;;;;;;;7.23;100.00;101454.91;10580903;27;20036;-70
2022/11/29 02:50:15;;;;;;;373.90;42.65;;;;;;;7.24;100.00;101451.94;10581144;28;20048;-70
2022/11/29 02:55:38;;;;;;;396.63;45.20;;;;;;;7.14;100.00;101445.25;10562949;28;20511;-70
2022/11/29 03:00:42;;;;;;;403.90;47.65;;;;;;;7.15;100.00;101457.88;10564754;27;20051;-70
2022/11/29 03:05:51;;;;;;;397.73;45.53;;;;;;;6.82;100.00;101404.09;10546181;28;20059;-70
2022/11/29 03:11:16;;;;;;;429.70;48.47;;;;;;;7.01;100.00;101447.00;10563315;28;20574;-70
2022/11/29 03:16:37;;;;;;;385.42;46.38;;;;;;;7.17;100.00;101477.69;10577282;27;20040;-70
2022/11/29 03:21:43;;;;;;;368.08;45.90;;;;;;;7.15;100.00;101485.25;10587997;27;20065;-70
2022/11/29 03:26:46;;;;;;;411.80;50.22;;;;;;;7.16;100.00;101485.06;10582212;28;20043;-71
2022/11/29 03:31:58;;;;;;;276.52;42.10;;;;;;;7.06;100.00;101471.81;10588135;27;20036;-70
2022/11/29 03:37:04;;;;;;;398.73;47.35;;;;;;;7.18;100.00;101493.06;10588535;27;20040;-70
2022/11/29 03:42:16;;;;;;;393.40;44.85;;;;;;;7.12;100.00;101488.47;10570384;27;20777;-70
2022/11/29 03:47:20;;;;;;;373.38;46.55;;;;;;;7.19;100.00;101492.00;10555066;27;20050;-70
2022/11/29 03:52:37;;;;;;;427.63;52.72;;;;;;;7.19;100.00;101492.84;10570537;27;20036;-69
2022/11/29 03:58:09;;;;;;;406.33;44.20;;;;;;;7.13;100.00;101498.34;10586769;27;20080;-70
2022/11/29 04:03:25;;;;;;;401.35;51.78;;;;;;;7.15;100.00;101498.97;10571649;27;20032;-69
2022/11/29 04:08:40;;;;;;;358.30;46.08;;;;;;;7.14;100.00;101506.34;10587833;27;20046;-70
2022/11/29 04:13:44;;;;;;;302.98;40.25;;;;;;;7.15;100.00;101508.03;10586023;27;20036;-71
2022/11/29 04:19:21;;;;;;;375.90;52.70;;;;;;;7.15;100.00;101512.66;10583086;28;20466;-70
2022/11/29 04:24:51;;;;;;;335.35;48.28;;;;;;;7.14;100.00;101510.97;10533647;28;20103;-70
2022/11/29 04:30:07;;;;;;;375.17;48.15;;;;;;;7.12;100.00;101511.19;10567404;27;20456;-70
2022/11/29 04:35:29;;;;;;;403.57;49.20;;;;;;;7.11;100.00;101517.75;10584620;28;20050;-70
2022/11/29 04:41:06;;;;;;;395.77;54.42;;;;;;;7.10;100.00;101526.16;10586393;28;20039;-70
2022/11/29 04:46:28;;;;;;;397.00;50.83;;;;;;;7.08;100.00;101523.63;10568241;28;20043;-70
2022/11/29 04:52:06;;;;;;;302.48;44.25;;;;;;;7.10;100.00;101528.91;10584019;27;20043;-70
2022/11/29 04:57:17;;;;;;;335.38;47.40;;;;;;;6.94;100.00;101517.34;10565192;28;20050;-70
2022/11/29 05:02:44;;;;;;;266.85;42.78;;;;;;;6.99;100.00;101528.50;10566475;28;20044;-70
2022/11/29 05:08:03;;;;;;;310.48;44.33;;;;;;;7.06;100.00;101553.13;10567019;28;20043;-70
2022/11/29 05:13:27;;;;;;;346.95;45.22;;;;;;;7.02;100.00;101547.22;10556236;28;20039;-69
2022/11/29 05:18:56;;;;;;;225.27;38.05;;;;;;;7.01;100.00;101559.25;10582124;27;20091;-69
2022/11/29 05:24:23;;;;;;;214.82;37.65;;;;;;;6.95;100.00;101557.38;10566585;27;20047;-70
2022/11/29 05:29:40;;;;;;;225.30;39.67;;;;;;;6.94;100.00;101565.78;10583527;27;20084;-70
2022/11/29 05:35:02;;;;;;;266.20;38.97;;;;;;;6.89;100.00;101569.16;10583290;27;20047;-70
2022/11/29 05:40:24;;;;;;;197.35;39.78;;;;;;;6.84;100.00;101567.06;10582756;27;20043;-70
2022/11/29 05:45:35;;;;;;;196.88;37.42;;;;;;;6.76;100.00;101574.63;10542481;28;20036;-70
2022/11/29 05:51:02;;;;;;;186.27;36.65;;;;;;;6.73;100.00;101569.59;10541251;28;20104;-69
2022/11/29 05:56:08;;;;;;;208.57;38.30;;;;;;;6.72;100.00;101578.84;10511409;28;20044;-70
2022/11/29 06:01:47;;;;;;;204.25;37.10;;;;;;;6.38;100.00;101531.53;10522620;28;20036;-70
2022/11/29 06:06:57;;;;;;;251.60;41.92;;;;;;;6.74;100.00;101593.16;10554851;27;20071;-70
2022/11/29 06:12:15;;;;;;;283.65;43.88;;;;;;;6.73;100.00;101596.97;10546814;28;20479;-69
2022/11/29 06:17:34;;;;;;;305.33;46.10;;;;;;;6.73;100.00;101602.44;10549326;28;20046;-70
2022/11/29 06:22:40;;;;;;;295.83;45.33;;;;;;;6.72;100.00;101608.94;10581406;28;20047;-70
2022/11/29 06:27:44;;;;;;;267.98;46.53;;;;;;;6.71;100.00;101616.31;10580607;28;20043;-70
2022/11/29 06:33:10;;;;;;;215.43;42.45;;;;;;;6.62;100.00;101612.97;10563363;28;20039;-70
2022/11/29 06:38:22;;;;;;;271.05;45.30;;;;;;;6.57;100.00;101609.16;10583362;27;20043;-70
2022/11/29 06:43:24;;;;;;;279.27;48.92;;;;;;;6.61;100.00;101633.16;10565458;28;20040;-70
2022/11/29 06:48:26;;;;;;;237.20;47.25;;;;;;;6.50;100.00;101624.75;10579101;27;20043;-70
2022/11/29 06:53:44;;;;;;;240.25;48.47;;;;;;;6.58;100.00;101641.78;10560285;27;20061;-70
2022/11/29 06:58:55;;;;;;;191.98;47.50;;;;;;;6.38;100.00;101633.56;10582621;27;20127;-70
2022/11/29 07:04:06;;;;;;;249.73;50.58;;;;;;;6.51;100.00;101651.91;10581037;28;20054;-70
2022/11/29 07:09:15;;;;;;;202.13;48.97;;;;;;;6.41;100.00;101641.34;10580788;28;20438;-70
2022/11/29 07:14:16;;;;;;;228.13;51.58;;;;;;;6.30;100.00;101633.75;10580143;28;20060;-70
2022/11/29 07:19:26;;;;;;;218.57;51.47;;;;;;;6.45;100.00;101660.94;10581559;28;20046;-71
2022/11/29 07:24:29;;;;;;;211.88;52.33;;;;;;;6.40;100.00;101655.22;10580848;28;20047;-70
2022/11/29 07:29:39;;;;;;;185.63;48.65;;;;;;;6.32;100.00;101641.75;10582175;28;20069;-70
2022/11/29 07:34:40;;;;;;;167.23;48.95;;;;;;;6.37;100.00;101655.66;10580654;28;20460;-70
2022/11/29 07:40:04;;;;;;;190.30;51.53;;;;;;;6.38;100.00;101662.81;10580496;28;20028;-71
2022/11/29 07:45:25;;;;;;;193.43;49.55;;;;;;;6.35;100.00;101665.97;10576375;28;20043;-69
2022/11/29 07:50:25;;;;;;;184.07;48.72;;;;;;;6.26;100.00;101649.75;10578913;28;20043;-70
2022/11/29 07:55:26;;;;;;;177.18;51.83;;;;;;;6.31;100.00;101670.16;10579687;28;20525;-71
2022/11/29 08:00:26;;;;;;;169.05;50.08;;;;;;;6.40;100.00;101685.31;10582247;27;20061;-71
2022/11/29 08:05:27;;;;;;;234.43;55.80;;;;;;;6.34;100.00;101658.81;10588938;27;20036;-70
2022/11/29 08:10:27;;;;;;;234.65;55.97;;;;;;;6.50;100.00;101680.28;10569385;27;20036;-71
2022/11/29 08:15:28;;;;;;;198.55;54.53;;;;;;;6.37;100.00;101664.72;10586638;27;20043;-70
2022/11/29 08:20:28;;;;;;;187.43;54.25;;;;;;;6.48;100.00;101682.41;10570323;27;20040;-71
2022/11/29 08:25:29;;;;;;;210.73;55.85;;;;;;;6.59;100.00;101695.44;10586821;27;20043;-70
2022/11/29 08:30:29;;;;;;;181.10;53.78;;;;;;;6.64;100.00;101689.38;10586639;27;20096;-71
2022/11/29 08:35:30;;;;;;;160.30;53.35;;;;;;;6.26;100.00;101630.59;10585951;27;20066;-70
2022/11/29 08:40:30;;;;;;;152.75;55.13;;;;;;;6.67;100.00;101700.72;10582475;27;20547;-70
2022/11/29 08:45:31;;;;;;;180.75;53.55;;;;;;;6.81;100.00;101692.56;10585808;27;20052;-70
2022/11/29 08:50:31;;;;;;;149.75;51.28;;;;;;;6.86;100.00;101703.69;10583780;27;20093;-70
2022/11/29 08:55:34;;;;;;;136.05;52.70;;;;;;;6.89;100.00;101700.56;10562918;27;20044;-70
2022/11/29 09:00:34;;;;;;;132.07;50.83;;;;;;;6.81;100.00;101698.84;10564915;27;20023;-71
2022/11/29 09:05:35;;;;;;;143.75;52.53;;;;;;;6.89;100.00;101708.78;10574045;27;20032;-71
2022/11/29 09:10:38;;;;;;;133.40;52.33;;;;;;;6.95;100.00;101720.78;10564417;27;20061;-71
2022/11/29 09:15:40;;;;;;;121.72;51.55;;;;;;;6.98;100.00;101721.19;10563250;28;20047;-71
2022/11/29 09:20:42;;;;;;;109.80;50.33;;;;;;;6.95;100.00;101721.63;10564960;28;20043;-71
2022/11/29 09:25:47;;;;;;;114.50;49.63;;;;;;;6.96;100.00;101722.47;10516616;28;20044;-71
2022/11/29 09:30:49;;;;;;;99.07;47.45;;;;;;;7.06;100.00;101734.66;10563564;27;20046;-70
2022/11/29 09:35:49;;;;;;;106.97;53.25;;;;;;;7.10;100.00;101739.75;10570119;27;20065;-71
2022/11/29 09:40:55;;;;;;;93.97;49.80;;;;;;;7.05;100.00;101743.13;10583245;27;20043;-70
2022/11/29 09:46:17;;;;;;;100.65;50.67;;;;;;;7.20;100.00;101756.59;10541727;28;20095;-71
2022/11/29 09:51:27;;;;;;;88.53;49.13;;;;;;;7.00;100.00;101740.16;10541735;27;20040;-70
2022/11/29 09:56:37;;;;;;;95.50;52.42;;;;;;;7.15;100.00;101767.31;10564418;28;20041;-71
2022/11/29 10:01:39;;;;;;;86.55;49.72;;;;;;;6.90;100.00;101724.13;10547840;28;20566;-70
2022/11/29 10:06:49;;;;;;;100.30;50.47;;;;;;;7.22;100.00;101763.53;10547772;28;20040;-71
2022/11/29 10:12:14;;;;;;;90.78;48.83;;;;;;;7.20;100.00;101757.44;10566036;28;20043;-71
2022/11/29 10:17:18;;;;;;;73.63;47.60;;;;;;;7.30;100.00;101767.13;10561969;28;20114;-71
2022/11/29 10:23:05;;;;;;;87.03;47.35;;;;;;;7.26;100.00;101763.97;10562123;28;20057;-71
2022/11/29 10:28:08;;;;;;;79.38;47.17;;;;;;;7.36;100.00;101756.19;10532567;27;20588;-70
2022/11/29 10:33:17;;;;;;;74.82;45.90;;;;;;;7.44;100.00;101758.69;10521708;28;20058;-71
2022/11/29 10:38:17;;;;;;;75.95;47.50;;;;;;;7.50;100.00;101762.47;10523104;28;20108;-71
2022/11/29 10:43:18;;;;;;;67.45;46.60;;;;;;;7.48;100.00;101754.50;10541243;28;20035;-71
2022/11/29 10:48:19;;;;;;;72.75;45.65;;;;;;;7.54;100.00;101762.91;10566199;27;20047;-71
2022/11/29 10:53:30;;;;;;;77.22;45.50;;;;;;;7.58;100.00;101762.25;10564394;28;20065;-71
2022/11/29 10:58:30;;;;;;;78.72;46.38;;;;;;;7.69;100.00;101760.78;10580622;28;20036;-70
2022/11/29 11:03:42;;;;;;;73.25;46.70;;;;;;;7.79;100.00;101766.69;10564006;28;20036;-71
2022/11/29 11:08:45;;;;;;;68.03;47.83;;;;;;;7.86;100.00;101764.75;10545425;28;20036;-71
2022/11/29 11:13:46;;;;;;;61.45;47.22;;;;;;;7.92;100.00;101775.91;10579924;28;20035;-71
2022/11/29 11:18:47;;;;;;;71.95;47.25;;;;;;;7.84;100.00;101764.13;10580451;28;20058;-71
2022/11/29 11:23:55;;;;;;;68.30;47.83;;;;;;;7.87;100.00;101768.31;10581796;28;20081;-71
2022/11/29 11:29:00;;;;;;;69.43;47.60;;;;;;;7.97;100.00;101787.06;10582428;28;20427;-71
2022/11/29 11:34:37;;;;;;;61.00;46.97;;;;;;;7.92;100.00;101792.34;10563651;27;20066;-71
2022/11/29 11:39:38;;;;;;;;;;;;;;;7.98;100.00;101797.84;10588280;27;20039;-71
2022/11/29 11:44:52;;;;;;;61.86;47.32;;;;;;;7.89;100.00;101788.97;10589403;27;19916;-71
2022/11/29 11:50:02;;;;;;;50.83;44.88;;;;;;;7.56;100.00;101741.59;10572246;27;20093;-71
2022/11/29 11:55:23;;;;;;;52.00;46.40;;;;;;;7.77;100.00;101782.50;10589502;27;20435;-71
2022/11/29 12:00:55;;;;;;;55.88;47.45;;;;;;;7.83;100.00;101789.88;10587805;27;20035;-71
2022/11/29 12:05:59;;;;;;;55.53;48.10;;;;;;;7.75;100.00;101790.09;10586112;28;20065;-71
2022/11/29 12:11:02;;;;;;;57.38;46.70;;;;;;;7.67;100.00;101795.78;10552411;27;20061;-72
2022/11/29 12:16:07;;;;;;;59.13;49.80;;;;;;;7.66;100.00;101805.06;10587015;27;20036;-71
2022/11/29 12:21:16;;;;;;;59.05;48.25;;;;;;;7.62;100.00;101804.63;10587382;27;20035;-72
2022/11/29 12:26:25;;;;;;;54.72;49.00;;;;;;;7.57;100.00;101817.28;10569356;27;20039;-71
2022/11/29 12:31:34;;;;;;;51.47;45.95;;;;;;;7.59;100.00;101821.50;10569701;27;20034;-72
2022/11/29 12:36:46;;;;;;;46.97;41.97;;;;;;;7.63;100.00;101811.81;10586201;27;20028;-73
2022/11/29 12:41:57;;;;;;;48.15;43.42;;;;;;;7.70;100.00;101825.50;10586030;27;20032;-72
2022/11/29 12:47:39;;;;;;;48.65;43.85;;;;;;;7.68;100.00;101824.88;10585057;27;20036;-71
2022/11/29 12:52:43;;;;;;;51.78;45.92;;;;;;;7.62;100.00;101842.16;10422065;28;20051;-71
2022/11/29 12:57:47;;;;;;;49.90;45.10;;;;;;;7.51;100.00;101840.91;10555851;27;20032;-71
2022/11/29 13:03:02;;;;;;;52.80;44.63;;;;;;;7.52;100.00;101837.09;10551477;27;20114;-71
2022/11/29 13:08:21;;;;;;;57.78;44.53;;;;;;;7.57;100.00;101840.06;10583001;27;20035;-71
2022/11/29 13:13:41;;;;;;;50.75;44.40;;;;;;;7.49;100.00;101848.47;10565116;28;20048;-71
2022/11/29 13:19:18;;;;;;;55.90;44.63;;;;;;;7.40;100.00;101836.03;10528149;28;20047;-71
2022/11/29 13:24:28;;;;;;;63.75;46.95;;;;;;;7.32;100.00;101848.06;10563438;28;20474;-71
2022/11/29 13:29:28;;;;;;;58.53;46.53;;;;;;;7.35;100.00;101852.25;10569692;27;20036;-71
2022/11/29 13:34:37;;;;;;;66.38;47.55;;;;;;;7.28;100.00;101852.25;10566343;27;20427;-72
2022/11/29 13:39:43;;;;;;;65.45;46.45;;;;;;;7.22;100.00;101855.84;10583692;27;20091;-72
2022/11/29 13:45:03;;;;;;;74.00;46.85;;;;;;;7.04;100.00;101849.03;10585019;28;20043;-71
2022/11/29 13:50:05;;;;;;;69.32;45.75;;;;;;;7.10;100.00;101852.84;10576084;27;20051;-71
2022/11/29 13:55:17;;;;;;;70.38;46.40;;;;;;;7.05;100.00;101864.44;10524967;28;20081;-71
2022/11/29 14:00:38;;;;;;;77.45;46.63;;;;;;;6.97;100.00;101877.47;10565979;27;20034;-72
2022/11/29 14:05:39;;;;;;;88.25;47.50;;;;;;;6.53;100.00;101835.84;10565631;27;20595;-71
2022/11/29 14:10:39;;;;;;;79.32;48.05;;;;;;;6.76;100.00;101881.16;10562622;27;21059;-71
2022/11/29 14:15:39;;;;;;;67.07;45.08;;;;;;;6.70;100.00;101899.25;10561970;28;20088;-72
2022/11/29 14:20:43;;;;;;;83.35;47.55;;;;;;;6.73;100.00;101918.00;10574646;27;20051;-72
2022/11/29 14:25:53;;;;;;;76.43;45.00;;;;;;;6.59;100.00;101905.28;10621950;27;20031;-71
2022/11/29 14:31:00;;;;;;;63.55;45.72;;;;;;;6.43;100.00;101904.59;10622412;27;20390;-72
2022/11/29 14:36:37;;;;;;;88.25;46.75;;;;;;;6.49;100.00;101926.69;10605777;27;20023;-72
2022/11/29 14:42:03;;;;;;;84.10;45.85;;;;;;;6.07;100.00;101874.69;10566705;27;20056;-71
2022/11/29 14:47:05;;;;;;;95.07;47.08;;;;;;;6.37;100.00;101932.75;10527103;27;20073;-71
2022/11/29 14:52:12;;;;;;;72.63;44.67;;;;;;;6.41;100.00;101934.03;10524792;27;20070;-72
2022/11/29 14:57:46;;;;;;;82.43;45.42;;;;;;;6.38;100.00;101937.16;10530026;27;20047;-72
2022/11/29 15:03:09;;;;;;;74.20;42.92;;;;;;;6.31;100.00;101919.03;10557797;27;20035;-71
2022/11/29 15:08:28;;;;;;;77.85;42.58;;;;;;;6.18;100.00;101912.44;10553940;27;20131;-71
2022/11/29 15:13:33;;;;;;;73.68;42.03;;;;;;;6.17;100.00;101949.00;10585567;27;20096;-72
2022/11/29 15:18:52;;;;;;;62.50;42.38;;;;;;;6.19;100.00;101946.09;10539533;27;20063;-72
2022/11/29 15:23:58;;;;;;;60.67;41.33;;;;;;;6.05;100.00;101951.44;10543017;27;20040;-71
2022/11/29 15:29:16;;;;;;;60.70;42.65;;;;;;;5.91;100.00;101954.22;10543145;27;20066;-72
2022/11/29 15:34:19;;;;;;;62.97;43.42;;;;;;;5.91;100.00;101962.41;10498184;28;20033;-71
2022/11/29 15:39:28;;;;;;;58.45;42.25;;;;;;;5.96;100.00;101974.50;10495547;28;20400;-71
2022/11/29 15:44:31;;;;;;;66.53;45.17;;;;;;;5.92;100.00;101977.78;10575657;27;20426;-72
2022/11/29 15:49:31;;;;;;;80.85;49.30;;;;;;;5.95;100.00;101988.34;10494285;28;20481;-72
2022/11/29 15:54:37;;;;;;;73.05;46.92;;;;;;;5.99;100.00;101992.38;10518541;28;20066;-71
2022/11/29 15:59:48;;;;;;;57.77;43.23;;;;;;;5.95;100.00;101993.81;10536202;28;20062;-72
2022/11/29 16:04:50;;;;;;;68.45;46.15;;;;;;;5.91;100.00;101992.47;10538697;28;20042;-72
2022/11/29 16:09:53;;;;;;;63.88;43.15;;;;;;;5.86;100.00;101990.34;10520027;28;20040;-72
2022/11/29 16:14:58;;;;;;;77.07;43.58;;;;;;;5.84;100.00;101993.28;10520264;28;20062;-72
2022/11/29 16:20:15;;;;;;;81.80;48.20;;;;;;;5.92;100.00;102016.91;10538579;28;20100;-72
2022/11/29 16:25:17;;;;;;;75.25;47.15;;;;;;;5.93;100.00;102012.28;10544584;28;20047;-72
2022/11/29 16:30:22;;;;;;;93.15;48.00;;;;;;;5.93;100.00;102004.06;10530105;28;20032;-72
2022/11/29 16:35:31;;;;;;;89.30;51.10;;;;;;;6.02;100.00;102022.09;10550775;28;20134;-72
2022/11/29 16:40:33;;;;;;;84.22;50.22;;;;;;;6.00;100.00;102018.69;10544846;28;20065;-72
2022/11/29 16:45:40;;;;;;;68.47;45.17;;;;;;;5.94;100.00;102019.44;10518558;27;20100;-72
2022/11/29 16:50:40;;;;;;;61.03;43.95;;;;;;;5.97;100.00;102021.81;10510926;28;20069;-72
2022/11/29 16:55:41;;;;;;;45.40;40.60;;;;;;;5.39;100.00;101934.38;10537479;27;20036;-72
2022/11/29 17:00:41;;;;;;;42.92;38.78;;;;;;;5.81;100.00;102021.00;10546114;27;20118;-72
2022/11/29 17:05:42;;;;;;;42.58;38.70;;;;;;;5.77;100.00;102025.16;10542775;27;20047;-71
2022/11/29 17:10:42;;;;;;;43.78;39.97;;;;;;;5.67;100.00;102000.03;10520023;27;20044;-71
2022/11/29 17:15:43;;;;;;;44.17;39.78;;;;;;;5.67;100.00;102021.91;10534578;27;20047;-71
2022/11/29 17:20:43;;;;;;;44.40;40.08;;;;;;;5.75;100.00;102029.97;10534067;27;20090;-71
2022/11/29 17:25:44;;;;;;;44.08;39.72;;;;;;;5.74;100.00;102031.00;10526478;28;20119;-70
2022/11/29 17:30:44;;;;;;;41.72;37.85;;;;;;;5.66;100.00;102044.78;10527690;28;20047;-71
2022/11/29 17:35:45;;;;;;;44.17;40.28;;;;;;;5.64;100.00;102042.28;10526543;28;20062;-71
2022/11/29 17:40:46;;;;;;;41.60;37.95;;;;;;;5.64;100.00;102046.88;10536716;28;20046;-71
2022/11/29 17:45:46;;;;;;;41.40;38.00;;;;;;;5.62;100.00;102038.00;10531206;27;20044;-71
2022/11/29 17:50:47;;;;;;;39.67;36.40;;;;;;;5.63;100.00;102056.13;10569170;27;20035;-71
2022/11/29 17:55:47;;;;;;;37.83;34.88;;;;;;;5.64;100.00;102055.94;10545714;28;20062;-71
2022/11/29 18:00:48;;;;;;;38.50;35.53;;;;;;;5.53;100.00;102029.09;10595495;27;20035;-71
2022/11/29 18:05:50;;;;;;;38.45;35.40;;;;;;;5.70;100.00;102058.91;10581836;28;20031;-72
2022/11/29 18:10:50;;;;;;;38.83;35.72;;;;;;;5.72;100.00;102065.88;10581200;28;20087;-71
2022/11/29 18:15:51;;;;;;;39.63;36.55;;;;;;;5.69;100.00;102065.44;10546607;28;20044;-71
2022/11/29 18:20:51;;;;;;;39.92;36.80;;;;;;;5.63;100.00;102058.84;10611282;27;20057;-69
2022/11/29 18:25:59;;;;;;;40.65;37.45;;;;;;;5.64;100.00;102068.72;10537488;27;20464;-71
2022/11/29 18:31:06;;;;;;;41.28;37.80;;;;;;;5.66;100.00;102080.31;10552591;28;20637;-71
2022/11/29 18:36:14;;;;;;;42.55;39.00;;;;;;;5.60;100.00;102072.88;10576859;27;20032;-71
2022/11/29 18:41:19;;;;;;;41.90;38.10;;;;;;;5.74;100.00;102102.06;10549693;27;20044;-71
2022/11/29 18:46:20;;;;;;;42.47;38.90;;;;;;;5.74;100.00;102096.59;10524216;27;20047;-71
2022/11/29 18:51:20;;;;;;;44.75;40.63;;;;;;;5.74;100.00;102093.84;10519381;27;20056;-71
2022/11/29 18:56:22;;;;;;;47.38;42.97;;;;;;;5.76;100.00;102099.97;10524064;27;20074;-72
2022/11/29 19:01:22;;;;;;;47.15;42.50;;;;;;;5.78;100.00;102103.34;10485674;28;20055;-71
2022/11/29 19:06:25;;;;;;;58.75;45.75;;;;;;;5.81;100.00;102115.81;10580568;27;20032;-71
2022/11/29 19:11:27;;;;;;;52.65;45.65;;;;;;;5.84;100.00;102118.97;10560023;28;20032;-71
2022/11/29 19:16:29;;;;;;;64.65;49.95;;;;;;;5.81;100.00;102113.91;10530801;28;20115;-71
2022/11/29 19:21:33;;;;;;;53.13;47.08;;;;;;;5.84;100.00;102118.97;10562121;28;20057;-71
2022/11/29 19:26:34;;;;;;;71.55;47.92;;;;;;;5.89;100.00;102125.75;10593294;28;20055;-71
2022/11/29 19:31:34;;;;;;;91.75;51.05;;;;;;;5.78;100.00;102117.03;10561865;28;20024;-71
2022/11/29 19:36:41;;;;;;;107.35;51.33;;;;;;;5.83;100.00;102130.97;10544523;28;20085;-71
2022/11/29 19:41:43;;;;;;;88.72;52.78;;;;;;;5.73;100.00;102127.69;10579667;28;20456;-71
2022/11/29 19:46:45;;;;;;;82.68;49.63;;;;;;;5.65;100.00;102125.91;10532956;28;20044;-71
2022/11/29 19:51:46;;;;;;;72.93;48.35;;;;;;;5.68;100.00;102141.06;10579349;28;20040;-71
2022/11/29 19:56:46;;;;;;;69.25;48.70;;;;;;;5.65;100.00;102152.41;10577835;27;20085;-71
2022/11/29 20:01:47;;;;;;;68.35;49.58;;;;;;;5.59;100.00;102148.53;10624830;27;20571;-71
2022/11/29 20:06:47;;;;;;;60.03;47.67;;;;;;;5.55;100.00;102155.41;10605545;27;20039;-72
2022/11/29 20:11:48;;;;;;;55.40;46.95;;;;;;;5.55;100.00;102158.13;10586377;27;20038;-72
2022/11/29 20:16:48;;;;;;;53.47;45.90;;;;;;;5.45;100.00;102155.69;10620375;27;20051;-72
2022/11/29 20:21:50;;;;;;;50.10;44.88;;;;;;;5.44;100.00;102162.19;10537867;28;20055;-73
2022/11/29 20:26:50;;;;;;;50.00;43.67;;;;;;;5.45;100.00;102163.03;10584364;27;20043;-72
2022/11/29 20:31:51;;;;;;;47.92;42.92;;;;;;;5.44;100.00;102162.19;10578598;27;20042;-70
2022/11/29 20:36:54;;;;;;;48.38;43.33;;;;;;;5.52;100.00;102165.84;10530288;27;21861;-71
2022/11/29 20:42:03;;;;;;;48.25;43.50;;;;;;;5.49;100.00;102174.44;10524583;27;20405;-72
2022/11/29 20:47:36;;;;;;;48.05;43.35;;;;;;;5.47;100.00;102180.94;10483187;28;20040;-72
2022/11/29 20:52:44;;;;;;;47.65;43.22;;;;;;;5.36;100.00;102145.06;10552899;27;20138;-72
2022/11/29 20:57:44;;;;;;;48.10;43.67;;;;;;;5.38;100.00;102141.09;10523859;27;20499;-73
2022/11/29 21:02:45;;;;;;;48.08;43.33;;;;;;;5.52;100.00;102168.59;10520923;27;20040;-72
2022/11/29 21:07:45;;;;;;;48.65;44.13;;;;;;;5.16;100.00;102114.75;10535703;28;20061;-71
2022/11/29 21:12:46;;;;;;;47.95;42.97;;;;;;;5.57;100.00;102163.41;10557431;28;20054;-71
2022/11/29 21:17:48;;;;;;;50.85;45.35;;;;;;;5.57;100.00;102171.63;10529543;28;21365;-71
2022/11/29 21:23:20;;;;;;;56.15;45.42;;;;;;;5.54;100.00;102161.94;10506001;28;20084;-70
2022/11/29 21:28:22;;;;;;;56.40;45.83;;;;;;;5.49;100.00;102158.91;10503414;28;20102;-71
2022/11/29 21:33:23;;;;;;;56.10;48.55;;;;;;;5.48;100.00;102159.94;10503075;28;20044;-70
2022/11/29 21:38:24;;;;;;;58.40;50.30;;;;;;;5.47;100.00;102160.97;10516163;28;20039;-71
2022/11/29 21:43:24;;;;;;;62.05;49.67;;;;;;;5.52;100.00;102174.06;10560650;27;20043;-71
2022/11/29 21:48:34;;;;;;;61.13;52.13;;;;;;;5.51;100.00;102162.28;10564521;28;20039;-71
2022/11/29 21:53:35;;;;;;;63.20;53.47;;;;;;;5.56;100.00;102172.63;10548465;28;20042;-71
2022/11/29 21:58:36;;;;;;;64.03;52.35;;;;;;;5.61;100.00;102184.69;10538813;28;20069;-71
2022/11/29 22:03:37;;;;;;;63.75;50.38;;;;;;;5.42;100.00;102155.25;10544842;27;20486;-72
2022/11/29 22:08:38;;;;;;;63.28;50.83;;;;;;;5.61;100.00;102183.88;10545312;27;20087;-71
2022/11/29 22:14:12;;;;;;;76.63;53.03;;;;;;;5.62;100.00;102191.88;10563457;28;20039;-71
2022/11/29 22:19:00;;;;;;;87.75;56.42;;;;;;;5.50;100.00;102182.47;10565210;28;20113;-71
2022/11/29 22:24:01;;;;;;;98.07;60.03;;;;;;;5.55;100.00;102196.38;10581992;28;20035;-71
2022/11/29 22:29:01;;;;;;;107.72;61.53;;;;;;;5.57;100.00;102209.88;10563407;28;20517;-72
2022/11/29 22:34:02;;;;;;;92.40;60.50;;;;;;;5.55;100.00;102207.31;10581175;28;20425;-71
2022/11/29 22:39:03;;;;;;;103.78;62.97;;;;;;;5.50;100.00;102203.44;10581422;28;20043;-72
2022/11/29 22:44:03;;;;;;;120.22;65.57;;;;;;;5.56;100.00;102213.63;10522665;28;20032;-72
2022/11/29 22:49:04;;;;;;;111.45;64.05;;;;;;;5.57;100.00;102215.31;10562305;28;20047;-72
2022/11/29 22:54:08;;;;;;;103.75;61.17;;;;;;;5.23;100.00;102162.13;10562895;28;20122;-71
2022/11/29 22:59:09;;;;;;;115.78;62.47;;;;;;;5.49;100.00;102207.22;10562593;28;20086;-71